Time;durP1;ratioP1;P1;durP2;ratioP2;P2;SDS_P1;SDS_P2;PMS_P1;PMS_P2;Temp;Humidity;BMP_temperature;BMP_pressure;BME280_temperature;BME280_humidity;BME280_pressure;Samples;Min_cycle;Max_cycle;Signal;HPM_P1;HPM_P2
2023/03/29 00:02:02;;;;;;;2.23;2.13;;;;;;;;;;5077051;28;20242;-89
2023/03/29 00:04:29;;;;;;;2.50;2.30;;;;;;;;;;5076516;28;20204;-89
2023/03/29 00:06:56;;;;;;;5.07;2.60;;;;;;;;;;5071659;28;20720;-89
2023/03/29 00:09:25;;;;;;;2.57;2.20;;;;;;;;;;5057538;28;20232;-89
2023/03/29 00:11:52;;;;;;;5.03;2.60;;;;;;;;;;5057844;28;20767;-89
2023/03/29 00:14:20;;;;;;;4.90;2.57;;;;;;;;;;5055850;28;20232;-89
2023/03/29 00:16:47;;;;;;;2.83;2.40;;;;;;;;;;5055493;28;20234;-90
2023/03/29 00:19:15;;;;;;;4.70;2.53;;;;;;;;;;5055919;28;20222;-89
2023/03/29 00:21:42;;;;;;;2.60;2.50;;;;;;;;;;5054845;28;20230;-89
2023/03/29 00:24:09;;;;;;;2.90;2.40;;;;;;;;;;5055617;28;20202;-90
2023/03/29 00:26:36;;;;;;;3.00;2.80;;;;;;;;;;5055286;28;20249;-89
2023/03/29 00:29:03;;;;;;;2.90;2.70;;;;;;;;;;5054968;28;20241;-89
2023/03/29 00:31:31;;;;;;;3.13;2.83;;;;;;;;;;5054747;28;20233;-88
2023/03/29 00:33:58;;;;;;;2.77;2.57;;;;;;;;;;5055362;28;20202;-89
2023/03/29 00:36:26;;;;;;;2.83;2.50;;;;;;;;;;5068587;28;20209;-90
2023/03/29 00:38:53;;;;;;;2.70;2.50;;;;;;;;;;5057218;28;20252;-89
2023/03/29 00:41:20;;;;;;;4.10;2.80;;;;;;;;;;5059673;28;20220;-89
2023/03/29 00:43:51;;;;;;;2.70;2.50;;;;;;;;;;5075191;28;20578;-89
2023/03/29 00:46:18;;;;;;;2.63;2.43;;;;;;;;;;5074988;28;20217;-89
2023/03/29 00:48:47;;;;;;;2.80;2.57;;;;;;;;;;5074843;28;20225;-89
2023/03/29 00:51:15;;;;;;;2.80;2.60;;;;;;;;;;5074489;28;20292;-89
2023/03/29 00:53:44;;;;;;;3.83;2.40;;;;;;;;;;5061094;28;20202;-89
2023/03/29 00:56:13;;;;;;;6.73;2.90;;;;;;;;;;5054374;28;20206;-90
2023/03/29 00:58:43;;;;;;;2.77;2.57;;;;;;;;;;5065025;28;20225;-90
2023/03/29 01:01:14;;;;;;;3.00;2.80;;;;;;;;;;5074252;28;20279;-90
2023/03/29 01:03:45;;;;;;;3.13;2.50;;;;;;;;;;5058967;28;20207;-90
2023/03/29 01:06:15;;;;;;;2.67;2.47;;;;;;;;;;5055921;28;20641;-89
2023/03/29 01:08:46;;;;;;;2.97;2.43;;;;;;;;;;5055158;28;20226;-89
2023/03/29 01:11:15;;;;;;;3.77;2.60;;;;;;;;;;5060901;28;20704;-89
2023/03/29 01:13:44;;;;;;;7.07;2.80;;;;;;;;;;5065100;28;20201;-89
2023/03/29 01:16:12;;;;;;;2.80;2.40;;;;;;;;;;5054937;28;20210;-89
2023/03/29 01:18:40;;;;;;;2.83;2.60;;;;;;;;;;5055471;28;20483;-89
2023/03/29 01:21:14;;;;;;;2.47;2.27;;;;;;;;;;5056693;28;20214;-89
2023/03/29 01:23:57;;;;;;;2.70;2.50;;;;;;;;;;5072179;28;20233;-90
2023/03/29 01:26:29;;;;;;;2.60;2.40;;;;;;;;;;5075629;28;20750;-89
2023/03/29 01:29:00;;;;;;;2.63;2.33;;;;;;;;;;5074507;28;20271;-89
2023/03/29 01:31:28;;;;;;;3.23;2.73;;;;;;;;;;5074275;28;20220;-89
2023/03/29 01:33:59;;;;;;;4.07;2.50;;;;;;;;;;5074798;28;20198;-89
2023/03/29 01:36:28;;;;;;;2.47;2.27;;;;;;;;;;5074197;28;20332;-89
2023/03/29 01:38:57;;;;;;;3.67;2.63;;;;;;;;;;5074650;28;20607;-89
2023/03/29 01:41:27;;;;;;;3.63;2.63;;;;;;;;;;5073810;28;20205;-89
2023/03/29 01:43:57;;;;;;;2.80;2.60;;;;;;;;;;5074421;28;20289;-89
2023/03/29 01:46:30;;;;;;;2.47;2.27;;;;;;;;;;5073076;28;20260;-89
2023/03/29 01:49:00;;;;;;;2.57;2.37;;;;;;;;;;5073880;28;20236;-89
2023/03/29 01:51:31;;;;;;;3.13;2.27;;;;;;;;;;5072895;28;20231;-88
2023/03/29 01:54:01;;;;;;;2.50;2.30;;;;;;;;;;5073948;28;20197;-89
2023/03/29 01:56:29;;;;;;;2.80;2.60;;;;;;;;;;5073004;28;20241;-89
2023/03/29 01:58:58;;;;;;;3.20;2.37;;;;;;;;;;5073616;28;20229;-89
2023/03/29 02:01:29;;;;;;;2.33;2.13;;;;;;;;;;5059699;28;20206;-89
2023/03/29 02:03:58;;;;;;;3.00;2.80;;;;;;;;;;5053409;28;20639;-89
2023/03/29 02:06:26;;;;;;;2.80;2.60;;;;;;;;;;5052903;28;20610;-89
2023/03/29 02:08:54;;;;;;;2.50;2.40;;;;;;;;;;5069078;28;20307;-90
2023/03/29 02:11:22;;;;;;;3.20;2.70;;;;;;;;;;5073681;28;20275;-89
2023/03/29 02:13:49;;;;;;;2.77;2.57;;;;;;;;;;5065032;28;20206;-89
2023/03/29 02:16:16;;;;;;;3.67;2.43;;;;;;;;;;5069760;28;20200;-89
2023/03/29 02:18:46;;;;;;;2.97;2.37;;;;;;;;;;5072994;28;20316;-89
2023/03/29 02:21:17;;;;;;;4.63;2.20;;;;;;;;;;5073162;28;20209;-89
2023/03/29 02:23:47;;;;;;;3.10;2.50;;;;;;;;;;5073981;28;20664;-88
2023/03/29 02:26:14;;;;;;;2.40;2.20;;;;;;;;;;5072393;28;20681;-89
2023/03/29 02:28:42;;;;;;;2.70;2.50;;;;;;;;;;5073659;28;20234;-89
2023/03/29 02:31:13;;;;;;;2.80;2.50;;;;;;;;;;5065009;28;20795;-89
2023/03/29 02:33:44;;;;;;;2.93;2.63;;;;;;;;;;5073901;28;20205;-88
2023/03/29 02:36:16;;;;;;;2.97;2.73;;;;;;;;;;5073022;28;20194;-89
2023/03/29 02:38:43;;;;;;;3.63;2.50;;;;;;;;;;5057166;28;20222;-89
2023/03/29 02:41:11;;;;;;;4.60;2.20;;;;;;;;;;5052938;28;20209;-89
2023/03/29 02:43:39;;;;;;;3.27;2.63;;;;;;;;;;5061213;28;20213;-89
2023/03/29 02:46:07;;;;;;;2.83;2.63;;;;;;;;;;5055248;28;20733;-88
2023/03/29 02:48:35;;;;;;;2.40;2.10;;;;;;;;;;5065664;28;20248;-89
2023/03/29 02:51:04;;;;;;;3.17;2.67;;;;;;;;;;5073763;28;20228;-89
2023/03/29 02:53:35;;;;;;;3.83;2.80;;;;;;;;;;5073624;28;20680;-89
2023/03/29 02:56:03;;;;;;;2.80;2.53;;;;;;;;;;5073333;28;20668;-89
2023/03/29 02:58:31;;;;;;;2.97;2.67;;;;;;;;;;5072881;28;20657;-89
2023/03/29 03:01:00;;;;;;;2.73;2.53;;;;;;;;;;5067649;28;20243;-89
2023/03/29 03:03:27;;;;;;;3.97;2.50;;;;;;;;;;5058722;28;20606;-89
2023/03/29 03:05:55;;;;;;;2.67;2.47;;;;;;;;;;5054932;28;20198;-88
2023/03/29 03:08:22;;;;;;;3.63;2.60;;;;;;;;;;5063408;28;21990;-89
2023/03/29 03:10:51;;;;;;;4.43;2.77;;;;;;;;;;5073275;28;20210;-89
2023/03/29 03:13:18;;;;;;;3.00;2.80;;;;;;;;;;5072430;28;20299;-89
2023/03/29 03:15:47;;;;;;;3.07;2.63;;;;;;;;;;5073259;28;20205;-89
2023/03/29 03:18:15;;;;;;;3.37;2.43;;;;;;;;;;5072449;28;20243;-89
2023/03/29 03:20:45;;;;;;;2.97;2.67;;;;;;;;;;5073583;28;20250;-89
2023/03/29 03:23:13;;;;;;;2.80;2.60;;;;;;;;;;5057075;28;20302;-88
2023/03/29 03:25:40;;;;;;;3.03;2.77;;;;;;;;;;5065289;28;20213;-89
2023/03/29 03:28:08;;;;;;;3.33;2.63;;;;;;;;;;5069040;28;20229;-88
2023/03/29 03:30:35;;;;;;;3.53;3.03;;;;;;;;;;5052703;28;20213;-89
2023/03/29 03:33:02;;;;;;;3.03;2.60;;;;;;;;;;5052748;28;20237;-89
2023/03/29 03:35:29;;;;;;;3.00;2.80;;;;;;;;;;5052508;28;20252;-89
2023/03/29 03:37:56;;;;;;;2.53;2.33;;;;;;;;;;5052061;28;20643;-88
2023/03/29 03:40:23;;;;;;;2.50;2.40;;;;;;;;;;5052809;28;20250;-89
2023/03/29 03:42:50;;;;;;;3.40;2.70;;;;;;;;;;5051884;28;20240;-89
2023/03/29 03:45:19;;;;;;;2.80;2.60;;;;;;;;;;5053113;28;20208;-89
2023/03/29 03:47:46;;;;;;;2.87;2.63;;;;;;;;;;5052617;28;20701;-89
2023/03/29 03:50:13;;;;;;;3.30;2.80;;;;;;;;;;5052423;28;20222;-89
2023/03/29 03:52:40;;;;;;;3.20;2.90;;;;;;;;;;5052186;28;20230;-89
2023/03/29 03:55:08;;;;;;;3.10;2.87;;;;;;;;;;5052310;28;20206;-89
2023/03/29 03:57:36;;;;;;;2.73;2.53;;;;;;;;;;5051035;28;20230;-90
2023/03/29 04:00:09;;;;;;;5.53;2.90;;;;;;;;;;5051715;28;20237;-89
2023/03/29 04:02:37;;;;;;;3.00;2.70;;;;;;;;;;5053706;28;20241;-90
2023/03/29 04:05:05;;;;;;;3.50;3.20;;;;;;;;;;5051279;28;20678;-88
2023/03/29 04:07:33;;;;;;;3.30;3.00;;;;;;;;;;5050875;28;20234;-89
2023/03/29 04:10:00;;;;;;;3.30;3.10;;;;;;;;;;5052380;28;20370;-90
2023/03/29 04:12:27;;;;;;;3.33;3.03;;;;;;;;;;5050419;28;20238;-89
2023/03/29 04:14:54;;;;;;;4.40;2.93;;;;;;;;;;5051432;28;20213;-90
2023/03/29 04:17:21;;;;;;;3.43;3.13;;;;;;;;;;5053922;28;20233;-89
2023/03/29 04:19:49;;;;;;;4.83;3.37;;;;;;;;;;5058095;28;20259;-89
2023/03/29 04:22:16;;;;;;;3.13;2.93;;;;;;;;;;5050776;28;20233;-89
2023/03/29 04:24:44;;;;;;;3.40;3.10;;;;;;;;;;5053120;28;20213;-89
2023/03/29 04:27:11;;;;;;;5.17;3.20;;;;;;;;;;5069811;28;20236;-90
2023/03/29 04:29:38;;;;;;;3.20;3.00;;;;;;;;;;5071831;28;20237;-89
2023/03/29 04:32:05;;;;;;;4.23;3.20;;;;;;;;;;5060887;28;20730;-89
2023/03/29 04:34:32;;;;;;;3.13;2.93;;;;;;;;;;5051038;28;20241;-87
2023/03/29 04:37:01;;;;;;;3.60;3.30;;;;;;;;;;5050873;28;20240;-86
2023/03/29 04:39:32;;;;;;;3.23;2.93;;;;;;;;;;5051849;28;20226;-87
2023/03/29 04:42:01;;;;;;;3.90;3.50;;;;;;;;;;5050671;28;20237;-87
2023/03/29 04:44:28;;;;;;;5.93;3.40;;;;;;;;;;5054826;28;20209;-85
2023/03/29 04:46:55;;;;;;;4.60;3.20;;;;;;;;;;5053555;28;20233;-85
2023/03/29 04:49:22;;;;;;;5.30;3.60;;;;;;;;;;5034721;28;20222;-85
2023/03/29 04:51:49;;;;;;;4.20;3.20;;;;;;;;;;5033244;28;20231;-85
2023/03/29 04:54:18;;;;;;;5.07;3.20;;;;;;;;;;5034747;28;20666;-85
2023/03/29 04:56:45;;;;;;;4.10;3.30;;;;;;;;;;5033904;28;20353;-86
2023/03/29 04:59:12;;;;;;;4.43;3.73;;;;;;;;;;5034199;28;20227;-86
2023/03/29 05:01:39;;;;;;;4.93;3.20;;;;;;;;;;5033780;28;20234;-86
2023/03/29 05:04:06;;;;;;;3.90;3.50;;;;;;;;;;5034571;28;20216;-87
2023/03/29 05:06:33;;;;;;;4.47;3.67;;;;;;;;;;5033634;28;20230;-87
2023/03/29 05:09:01;;;;;;;4.57;3.20;;;;;;;;;;5034171;28;20234;-87
2023/03/29 05:11:30;;;;;;;4.17;3.57;;;;;;;;;;5033588;28;20230;-86
2023/03/29 05:14:01;;;;;;;3.97;3.13;;;;;;;;;;5034382;28;20248;-86
2023/03/29 05:16:29;;;;;;;4.43;3.53;;;;;;;;;;5037447;28;20230;-87
2023/03/29 05:18:56;;;;;;;3.23;2.97;;;;;;;;;;5053834;28;20222;-87
2023/03/29 05:21:24;;;;;;;3.63;3.33;;;;;;;;;;5053131;28;20668;-87
2023/03/29 05:23:52;;;;;;;4.47;3.30;;;;;;;;;;5053953;28;20315;-88
2023/03/29 05:26:19;;;;;;;4.83;3.43;;;;;;;;;;5053207;28;20205;-87
2023/03/29 05:28:48;;;;;;;6.23;3.13;;;;;;;;;;5053377;28;20288;-87
2023/03/29 05:31:15;;;;;;;5.47;3.20;;;;;;;;;;5084895;22;20269;-89
2023/03/29 05:33:42;;;;;;;3.37;3.07;;;;;;;;;;5075716;28;20661;-89
2023/03/29 05:36:12;;;;;;;6.50;3.33;;;;;;;;;;5075967;28;20213;-91
2023/03/29 05:38:39;;;;;;;3.10;2.90;;;;;;;;;;5075971;28;20691;-89
2023/03/29 05:41:06;;;;;;;7.80;3.57;;;;;;;;;;5059756;28;20218;-89
2023/03/29 05:43:34;;;;;;;3.70;3.40;;;;;;;;;;5055730;28;20202;-90
2023/03/29 05:46:02;;;;;;;3.70;3.17;;;;;;;;;;5055413;28;20209;-87
2023/03/29 05:48:29;;;;;;;3.40;3.10;;;;;;;;;;5054796;28;20649;-87
2023/03/29 05:50:57;;;;;;;3.63;3.00;;;;;;;;;;5055345;28;20237;-88
2023/03/29 05:53:25;;;;;;;3.43;3.13;;;;;;;;;;5065835;28;20229;-88
2023/03/29 05:55:54;;;;;;;2.90;2.70;;;;;;;;;;5055209;28;20288;-88
2023/03/29 05:58:21;;;;;;;4.00;3.40;;;;;;;;;;5054691;28;20237;-90
2023/03/29 06:00:50;;;;;;;3.80;3.50;;;;;;;;;;5055938;28;20226;-90
2023/03/29 06:03:19;;;;;;;5.07;3.90;;;;;;;;;;5058373;28;20229;-90
2023/03/29 06:05:47;;;;;;;3.90;3.60;;;;;;;;;;5074774;28;20216;-89
2023/03/29 06:08:14;;;;;;;4.23;3.77;;;;;;;;;;5074414;28;20244;-89
2023/03/29 06:10:41;;;;;;;4.27;3.60;;;;;;;;;;5074697;28;20224;-90
2023/03/29 06:13:09;;;;;;;4.60;4.20;;;;;;;;;;5057055;28;20242;-89
2023/03/29 06:16:03;;;;;;;5.03;3.97;;;;;;;;;;5055109;28;20210;-90
2023/03/29 06:18:39;;;;;;;5.13;3.90;;;;;;;;;;5054082;28;20804;-90
2023/03/29 06:21:06;;;;;;;4.30;3.90;;;;;;;;;;5053953;28;20283;-89
2023/03/29 06:23:40;;;;;;;4.70;4.20;;;;;;;;;;5057388;28;20566;-89
2023/03/29 06:26:09;;;;;;;4.97;4.03;;;;;;;;;;5074820;28;20209;-88
2023/03/29 06:28:36;;;;;;;5.30;3.80;;;;;;;;;;5075071;28;20312;-90
2023/03/29 06:31:04;;;;;;;5.03;4.13;;;;;;;;;;5054848;28;20239;-89
2023/03/29 06:33:31;;;;;;;4.20;3.80;;;;;;;;;;5054235;28;20579;-89
2023/03/29 06:36:00;;;;;;;4.83;4.37;;;;;;;;;;5054273;28;20209;-90
2023/03/29 06:38:27;;;;;;;5.23;4.37;;;;;;;;;;5053698;28;20230;-89
2023/03/29 06:41:00;;;;;;;5.10;4.43;;;;;;;;;;5054319;28;20229;-89
2023/03/29 06:43:27;;;;;;;5.40;4.33;;;;;;;;;;5053211;28;20265;-89
2023/03/29 06:45:55;;;;;;;4.40;4.00;;;;;;;;;;5054016;28;20215;-89
2023/03/29 06:48:22;;;;;;;5.77;4.43;;;;;;;;;;5053352;28;20244;-89
2023/03/29 06:50:49;;;;;;;5.00;3.90;;;;;;;;;;5054234;28;20234;-89
2023/03/29 06:53:17;;;;;;;10.60;4.70;;;;;;;;;;5064282;28;20232;-89
2023/03/29 06:55:45;;;;;;;4.30;3.87;;;;;;;;;;5034062;28;20261;-89
2023/03/29 06:58:12;;;;;;;4.53;4.03;;;;;;;;;;5033611;28;20231;-89
2023/03/29 07:00:45;;;;;;;4.37;3.97;;;;;;;;;;5034164;28;20663;-89
2023/03/29 07:03:18;;;;;;;4.87;4.17;;;;;;;;;;5033236;28;20245;-89
2023/03/29 07:05:46;;;;;;;5.80;4.47;;;;;;;;;;5052768;28;20210;-89
2023/03/29 07:08:15;;;;;;;5.83;4.30;;;;;;;;;;5068789;28;20310;-89
2023/03/29 07:10:44;;;;;;;7.07;4.30;;;;;;;;;;5073792;28;20329;-89
2023/03/29 07:13:12;;;;;;;5.73;4.43;;;;;;;;;;5073083;28;20232;-89
2023/03/29 07:15:40;;;;;;;4.93;4.43;;;;;;;;;;5073304;28;20228;-89
2023/03/29 07:18:07;;;;;;;5.27;4.30;;;;;;;;;;5073357;28;20308;-89
2023/03/29 07:20:37;;;;;;;6.00;5.10;;;;;;;;;;5064976;28;20215;-89
2023/03/29 07:23:04;;;;;;;6.70;4.13;;;;;;;;;;5055467;28;20623;-90
2023/03/29 07:25:33;;;;;;;4.93;4.00;;;;;;;;;;5053613;28;20210;-89
2023/03/29 07:28:02;;;;;;;4.13;3.83;;;;;;;;;;5051345;28;20241;-89
2023/03/29 07:30:30;;;;;;;4.87;4.13;;;;;;;;;;5061904;28;20222;-89
2023/03/29 07:33:12;;;;;;;4.50;4.00;;;;;;;;;;5054909;28;20231;-89
2023/03/29 07:35:42;;;;;;;4.20;3.80;;;;;;;;;;5065447;28;20288;-89
2023/03/29 07:38:09;;;;;;;5.17;3.73;;;;;;;;;;5065776;28;20582;-89
2023/03/29 07:40:36;;;;;;;5.27;3.80;;;;;;;;;;5061981;28;20233;-89
2023/03/29 07:43:07;;;;;;;3.70;3.40;;;;;;;;;;5072601;28;20294;-89
2023/03/29 07:45:43;;;;;;;4.20;3.80;;;;;;;;;;5058952;28;20288;-89
2023/03/29 07:48:11;;;;;;;6.93;3.97;;;;;;;;;;5052706;28;20229;-89
2023/03/29 07:50:38;;;;;;;4.83;3.93;;;;;;;;;;5053223;28;20632;-89
2023/03/29 07:53:07;;;;;;;4.37;3.60;;;;;;;;;;5048748;28;20725;-89
2023/03/29 07:55:35;;;;;;;4.10;3.70;;;;;;;;;;5053220;28;20209;-89
2023/03/29 07:58:03;;;;;;;13.33;8.97;;;;;;;;;;5052725;28;20234;-90
2023/03/29 08:00:32;;;;;;;5.20;4.70;;;;;;;;;;5053202;28;20268;-93
2023/03/29 08:03:00;;;;;;;3.87;3.37;;;;;;;;;;5053354;28;20237;-93
2023/03/29 08:05:27;;;;;;;4.80;3.67;;;;;;;;;;5069811;28;20209;-93
2023/03/29 08:07:54;;;;;;;4.03;3.67;;;;;;;;;;5072556;28;20641;-93
2023/03/29 08:10:22;;;;;;;5.67;4.10;;;;;;;;;;5073630;28;20217;-92
2023/03/29 08:12:52;;;;;;;4.33;3.80;;;;;;;;;;5072949;28;20714;-93
2023/03/29 08:15:19;;;;;;;40.33;24.73;;;;;;;;;;5073804;28;20259;-92
2023/03/29 08:17:47;;;;;;;6.37;4.90;;;;;;;;;;5074372;28;20240;-90
2023/03/29 08:20:15;;;;;;;4.20;3.80;;;;;;;;;;5082584;28;20225;-89
2023/03/29 08:22:42;;;;;;;3.67;3.37;;;;;;;;;;5083101;28;20657;-90
2023/03/29 08:25:10;;;;;;;5.80;3.70;;;;;;;;;;5078095;28;20209;-91
2023/03/29 08:27:37;;;;;;;3.77;3.43;;;;;;;;;;5077387;28;20237;-91
2023/03/29 08:30:05;;;;;;;3.77;3.40;;;;;;;;;;5077536;28;20229;-91
2023/03/29 08:32:32;;;;;;;5.23;3.60;;;;;;;;;;5076415;28;20268;-90
2023/03/29 08:35:02;;;;;;;5.60;3.57;;;;;;;;;;5076644;28;20237;-91
2023/03/29 08:37:29;;;;;;;5.53;3.57;;;;;;;;;;5076446;28;20240;-90
2023/03/29 08:39:57;;;;;;;6.80;5.57;;;;;;;;;;5076706;28;20704;-91
2023/03/29 08:42:35;;;;;;;4.57;4.17;;;;;;;;;;5075772;28;20728;-90
2023/03/29 08:45:06;;;;;;;4.27;3.30;;;;;;;;;;5076184;28;20260;-91
2023/03/29 08:47:35;;;;;;;2.90;2.70;;;;;;;;;;5075979;28;20228;-90
2023/03/29 08:50:04;;;;;;;3.77;3.10;;;;;;;;;;5076506;28;20731;-90
2023/03/29 08:52:51;;;;;;;3.03;2.70;;;;;;;;;;5049883;28;20230;-90
2023/03/29 08:55:22;;;;;;;3.00;2.70;;;;;;;;;;5046678;28;20199;-90
2023/03/29 08:57:51;;;;;;;4.47;2.67;;;;;;;;;;5055549;28;20261;-90
2023/03/29 09:00:21;;;;;;;6.23;2.93;;;;;;;;;;5056319;28;20253;-90
2023/03/29 09:02:48;;;;;;;3.00;2.53;;;;;;;;;;5055551;28;20248;-90
2023/03/29 09:05:27;;;;;;;2.50;2.30;;;;;;;;;;5054883;28;20681;-90
2023/03/29 09:07:54;;;;;;;3.57;2.47;;;;;;;;;;5055217;28;20705;-90
2023/03/29 09:10:23;;;;;;;3.07;2.50;;;;;;;;;;5058232;28;20221;-90
2023/03/29 09:12:56;;;;;;;2.90;2.63;;;;;;;;;;5055430;28;20694;-90
2023/03/29 09:15:25;;;;;;;2.60;2.40;;;;;;;;;;5057941;28;20681;-88
2023/03/29 09:17:58;;;;;;;4.73;2.93;;;;;;;;;;5056454;28;20234;-90
2023/03/29 09:20:36;;;;;;;2.57;2.33;;;;;;;;;;5057815;28;20232;-89
2023/03/29 09:23:11;;;;;;;4.07;2.50;;;;;;;;;;5055381;28;20229;-89
2023/03/29 09:25:46;;;;;;;3.43;2.30;;;;;;;;;;5055508;28;20185;-89
2023/03/29 09:28:14;;;;;;;7.13;2.70;;;;;;;;;;5054814;28;20241;-89
2023/03/29 09:30:42;;;;;;;3.93;2.50;;;;;;;;;;5055727;28;20226;-89
2023/03/29 09:33:12;;;;;;;2.43;2.30;;;;;;;;;;5054566;28;20693;-89
2023/03/29 09:35:43;;;;;;;2.97;2.73;;;;;;;;;;5065215;28;20216;-89
2023/03/29 09:38:12;;;;;;;4.53;3.27;;;;;;;;;;5075404;28;20245;-89
2023/03/29 09:40:42;;;;;;;3.07;2.70;;;;;;;;;;5075470;28;20229;-90
2023/03/29 09:43:10;;;;;;;2.93;2.37;;;;;;;;;;5074951;28;20284;-89
2023/03/29 09:45:39;;;;;;;4.77;2.97;;;;;;;;;;5075187;28;20205;-89
2023/03/29 09:48:11;;;;;;;4.07;2.63;;;;;;;;;;5074706;28;20240;-89
2023/03/29 09:50:42;;;;;;;4.07;3.10;;;;;;;;;;5068689;28;20621;-89
2023/03/29 09:53:10;;;;;;;4.33;2.90;;;;;;;;;;5054590;28;20321;-89
2023/03/29 09:55:39;;;;;;;6.80;2.77;;;;;;;;;;5062324;28;20209;-87
2023/03/29 09:58:14;;;;;;;3.73;3.00;;;;;;;;;;5074784;28;20290;-88
2023/03/29 10:00:41;;;;;;;3.13;2.80;;;;;;;;;;5075161;28;20260;-88
2023/03/29 10:03:09;;;;;;;4.37;3.10;;;;;;;;;;5073942;28;20236;-89
2023/03/29 10:05:37;;;;;;;3.87;3.10;;;;;;;;;;5074903;28;20208;-89
2023/03/29 10:08:13;;;;;;;4.20;2.77;;;;;;;;;;5074182;28;20229;-90
2023/03/29 10:10:41;;;;;;;4.70;3.00;;;;;;;;;;5074996;28;20232;-89
2023/03/29 10:13:12;;;;;;;3.10;2.80;;;;;;;;;;5074216;28;20237;-90
2023/03/29 10:15:39;;;;;;;3.13;2.83;;;;;;;;;;5074599;28;20194;-90
2023/03/29 10:18:13;;;;;;;4.37;2.93;;;;;;;;;;5074312;28;20233;-90
2023/03/29 10:20:41;;;;;;;4.87;2.67;;;;;;;;;;5074705;28;20221;-90
2023/03/29 10:23:09;;;;;;;3.60;2.70;;;;;;;;;;5073991;28;20636;-90
2023/03/29 10:25:39;;;;;;;3.73;2.60;;;;;;;;;;5074621;28;20210;-90
2023/03/29 10:28:08;;;;;;;3.20;2.50;;;;;;;;;;5074683;28;20712;-89
2023/03/29 10:30:37;;;;;;;3.07;2.53;;;;;;;;;;5074466;28;20232;-89
2023/03/29 10:33:04;;;;;;;5.93;3.87;;;;;;;;;;5073927;28;20259;-89
2023/03/29 10:35:33;;;;;;;2.50;2.30;;;;;;;;;;5071806;28;20202;-89
2023/03/29 10:38:03;;;;;;;3.27;2.60;;;;;;;;;;5053717;28;20659;-89
2023/03/29 10:40:31;;;;;;;4.57;3.00;;;;;;;;;;5053666;28;20232;-90
2023/03/29 10:42:59;;;;;;;3.63;2.30;;;;;;;;;;5053648;28;20241;-89
2023/03/29 10:45:29;;;;;;;7.93;2.80;;;;;;;;;;5055515;28;20233;-89
2023/03/29 10:47:56;;;;;;;9.03;2.70;;;;;;;;;;5073882;28;20319;-89
2023/03/29 10:50:23;;;;;;;3.63;2.90;;;;;;;;;;5074323;28;20261;-89
2023/03/29 10:52:51;;;;;;;3.17;2.57;;;;;;;;;;5073388;28;20237;-89
2023/03/29 10:55:19;;;;;;;3.57;2.60;;;;;;;;;;5074015;28;20224;-90
2023/03/29 10:57:51;;;;;;;2.60;2.40;;;;;;;;;;5073355;28;20229;-91
2023/03/29 11:00:23;;;;;;;2.90;2.67;;;;;;;;;;5074579;28;20229;-90
2023/03/29 11:02:58;;;;;;;3.20;2.50;;;;;;;;;;5073290;28;20233;-89
2023/03/29 11:05:29;;;;;;;2.87;2.50;;;;;;;;;;5073951;28;20221;-90
2023/03/29 11:08:03;;;;;;;2.57;2.07;;;;;;;;;;5053775;28;20236;-89
2023/03/29 11:10:34;;;;;;;5.00;2.47;;;;;;;;;;5053765;28;20237;-90
2023/03/29 11:13:05;;;;;;;3.73;2.47;;;;;;;;;;5053229;28;20731;-89
2023/03/29 11:15:42;;;;;;;2.40;2.20;;;;;;;;;;5053678;28;20209;-89
2023/03/29 11:18:21;;;;;;;3.13;2.50;;;;;;;;;;5041109;28;20236;-89
2023/03/29 11:20:53;;;;;;;2.40;2.20;;;;;;;;;;5074106;28;20260;-89
2023/03/29 11:23:26;;;;;;;2.10;2.00;;;;;;;;;;5039188;28;20288;-90
2023/03/29 11:25:59;;;;;;;2.77;2.40;;;;;;;;;;5033811;28;20207;-90
2023/03/29 11:28:31;;;;;;;4.40;2.57;;;;;;;;;;5043812;28;20310;-86
2023/03/29 11:31:01;;;;;;;2.43;2.17;;;;;;;;;;5052470;28;20664;-87
2023/03/29 11:33:34;;;;;;;7.00;2.30;;;;;;;;;;5053004;28;20238;-86
2023/03/29 11:36:10;;;;;;;4.53;2.30;;;;;;;;;;5053016;28;20206;-85
2023/03/29 11:38:39;;;;;;;4.50;2.50;;;;;;;;;;5052645;28;20218;-86
2023/03/29 11:41:12;;;;;;;4.57;2.10;;;;;;;;;;5052149;28;20221;-89
2023/03/29 11:43:43;;;;;;;3.00;2.43;;;;;;;;;;5052684;28;20209;-85
2023/03/29 11:46:12;;;;;;;2.77;2.00;;;;;;;;;;5052109;28;20212;-85
2023/03/29 11:48:45;;;;;;;2.37;2.17;;;;;;;;;;5052718;28;20714;-85
2023/03/29 11:51:14;;;;;;;2.63;2.40;;;;;;;;;;5052848;28;20245;-85
2023/03/29 11:53:44;;;;;;;4.13;2.20;;;;;;;;;;5056138;28;20206;-85
2023/03/29 11:56:25;;;;;;;1.93;1.83;;;;;;;;;;5059127;28;20190;-84
2023/03/29 11:58:56;;;;;;;2.93;2.70;;;;;;;;;;5056733;28;20206;-87
2023/03/29 12:01:28;;;;;;;3.60;2.23;;;;;;;;;;5055971;28;20233;-85
2023/03/29 12:03:59;;;;;;;4.10;1.60;;;;;;;;;;5056787;28;20207;-86
2023/03/29 12:06:28;;;;;;;2.50;2.10;;;;;;;;;;5056424;28;20308;-87
2023/03/29 12:08:59;;;;;;;2.10;1.80;;;;;;;;;;5057125;28;20202;-87
2023/03/29 12:11:30;;;;;;;2.80;1.60;;;;;;;;;;5070523;28;20237;-87
2023/03/29 12:13:58;;;;;;;1.50;1.40;;;;;;;;;;5077113;28;20645;-86
2023/03/29 12:16:28;;;;;;;2.17;1.90;;;;;;;;;;5076806;28;20254;-87
2023/03/29 12:18:57;;;;;;;2.60;1.87;;;;;;;;;;5077589;28;20198;-87
2023/03/29 12:21:25;;;;;;;2.40;1.77;;;;;;;;;;5068105;28;20241;-89
2023/03/29 12:23:52;;;;;;;2.80;1.87;;;;;;;;;;5057468;28;20626;-89
2023/03/29 12:26:27;;;;;;;2.90;2.00;;;;;;;;;;5056449;28;20202;-89
2023/03/29 12:29:04;;;;;;;3.97;1.90;;;;;;;;;;5057146;28;20642;-90
2023/03/29 12:31:34;;;;;;;4.55;1.98;;;;;;;;;;5056366;28;20294;-90
2023/03/29 12:34:09;;;;;;;2.70;1.90;;;;;;;;;;5057257;28;20198;-89
2023/03/29 12:36:44;;;;;;;3.23;2.30;;;;;;;;;;5056289;28;20572;-89
2023/03/29 12:39:14;;;;;;;2.13;1.98;;;;;;;;;;5057410;28;20197;-89
2023/03/29 12:41:44;;;;;;;4.65;2.30;;;;;;;;;;5069511;28;20229;-84
2023/03/29 12:44:13;;;;;;;4.45;3.25;;;;;;;;;;5075006;28;20276;-85
2023/03/29 12:46:40;;;;;;;3.67;1.98;;;;;;;;;;5073940;28;20229;-83
2023/03/29 12:49:14;;;;;;;5.00;2.60;;;;;;;;;;5069021;28;20348;-84
2023/03/29 12:51:42;;;;;;;2.20;2.00;;;;;;;;;;5053982;28;20234;-83
2023/03/29 12:54:12;;;;;;;2.65;2.05;;;;;;;;;;5034709;28;20210;-81
2023/03/29 12:56:42;;;;;;;2.92;2.10;;;;;;;;;;5033908;28;20348;-81
2023/03/29 12:59:17;;;;;;;3.38;2.40;;;;;;;;;;5034455;28;20211;-81
2023/03/29 13:01:57;;;;;;;3.35;2.53;;;;;;;;;;5040006;28;20237;-81
2023/03/29 13:04:37;;;;;;;2.55;2.10;;;;;;;;;;5033214;28;20183;-83
2023/03/29 13:07:04;;;;;;;4.25;2.60;;;;;;;;;;5041607;28;20232;-84
2023/03/29 13:09:36;;;;;;;3.58;2.00;;;;;;;;;;5054249;28;20229;-83
2023/03/29 13:12:19;;;;;;;3.08;1.95;;;;;;;;;;5053828;28;20596;-86
2023/03/29 13:14:49;;;;;;;2.83;2.30;;;;;;;;;;5054614;28;20242;-84
2023/03/29 13:17:22;;;;;;;2.80;2.08;;;;;;;;;;5054314;28;20318;-86
2023/03/29 13:19:54;;;;;;;3.53;2.45;;;;;;;;;;5054089;28;20237;-84
2023/03/29 13:22:28;;;;;;;3.00;1.95;;;;;;;;;;5053740;28;20234;-87
2023/03/29 13:25:20;;;;;;;6.05;3.88;;;;;;;;;;5041566;28;20198;-88
2023/03/29 13:27:52;;;;;;;4.40;2.85;;;;;;;;;;5048142;28;20230;-87
2023/03/29 13:30:22;;;;;;;4.15;2.33;;;;;;;;;;5054679;28;20735;-87
2023/03/29 13:32:56;;;;;;;4.07;2.72;;;;;;;;;;5042087;28;20235;-86
2023/03/29 13:35:31;;;;;;;3.83;2.63;;;;;;;;;;5054440;28;20208;-86
2023/03/29 13:38:05;;;;;;;3.05;2.42;;;;;;;;;;5054032;28;20710;-86
2023/03/29 13:40:33;;;;;;;4.20;2.60;;;;;;;;;;5054458;28;20226;-86
2023/03/29 13:43:01;;;;;;;5.30;2.72;;;;;;;;;;5053487;28;20268;-86
2023/03/29 13:45:28;;;;;;;5.68;3.13;;;;;;;;;;5054542;28;20210;-85
2023/03/29 13:48:03;;;;;;;3.40;2.95;;;;;;;;;;5054290;28;20292;-87
2023/03/29 13:50:35;;;;;;;5.00;3.60;;;;;;;;;;5052956;28;20692;-86
2023/03/29 13:53:04;;;;;;;3.45;2.63;;;;;;;;;;5069220;28;20629;-87
2023/03/29 13:55:40;;;;;;;3.75;2.60;;;;;;;;;;5074383;28;20213;-87
2023/03/29 13:58:11;;;;;;;6.45;2.83;;;;;;;;;;5074250;28;20247;-86
2023/03/29 14:00:40;;;;;;;3.90;2.58;;;;;;;;;;5074383;28;20233;-86
2023/03/29 14:03:10;;;;;;;8.73;3.83;;;;;;;;;;5055904;28;20241;-87
2023/03/29 14:05:40;;;;;;;3.88;2.40;;;;;;;;;;5044316;28;20251;-85
2023/03/29 14:08:25;;;;;;;2.72;2.53;;;;;;;;;;5053695;28;20234;-87
2023/03/29 14:10:54;;;;;;;2.90;2.67;;;;;;;;;;5053282;28;20240;-87
2023/03/29 14:13:23;;;;;;;4.07;2.95;;;;;;;;;;5047821;28;20310;-87
2023/03/29 14:15:54;;;;;;;10.05;7.22;;;;;;;;;;5032608;28;20203;-86
2023/03/29 14:18:22;;;;;;;4.45;2.70;;;;;;;;;;5032960;28;20230;-89
2023/03/29 14:20:53;;;;;;;4.32;2.90;;;;;;;;;;5034405;28;20254;-87
2023/03/29 14:23:22;;;;;;;4.55;3.10;;;;;;;;;;5051791;28;20646;-88
2023/03/29 14:25:51;;;;;;;4.45;2.50;;;;;;;;;;5034281;28;20234;-88
2023/03/29 14:28:22;;;;;;;3.03;2.30;;;;;;;;;;5034196;28;20257;-89
2023/03/29 14:30:51;;;;;;;2.08;1.85;;;;;;;;;;5033894;28;20253;-87
2023/03/29 14:33:27;;;;;;;2.42;1.70;;;;;;;;;;5049613;28;20326;-87
2023/03/29 14:35:56;;;;;;;4.90;2.00;;;;;;;;;;5053736;28;20658;-86
2023/03/29 14:38:23;;;;;;;2.10;2.00;;;;;;;;;;5039926;28;20306;-88
2023/03/29 14:40:54;;;;;;;4.50;2.20;;;;;;;;;;5048077;28;20230;-87
2023/03/29 14:43:22;;;;;;;2.30;1.58;;;;;;;;;;5052752;28;20288;-90
2023/03/29 14:45:51;;;;;;;4.97;2.20;;;;;;;;;;5048757;28;20208;-87
2023/03/29 14:48:18;;;;;;;3.00;2.05;;;;;;;;;;5033841;28;20721;-86
2023/03/29 14:50:46;;;;;;;2.63;2.10;;;;;;;;;;5033701;28;20234;-86
2023/03/29 14:53:17;;;;;;;2.22;2.03;;;;;;;;;;5047081;28;20820;-88
2023/03/29 14:55:46;;;;;;;4.63;2.55;;;;;;;;;;5053658;28;20225;-87
2023/03/29 14:58:20;;;;;;;2.60;2.00;;;;;;;;;;5052549;28;20238;-86